createdAt,value
2022-11-05T00:02:38.764Z,15.70
2022-11-05T00:05:30.834Z,15.90
2022-11-05T00:08:23.121Z,15.90
2022-11-05T00:10:54.133Z,15.80
2022-11-05T00:13:43.439Z,15.70
2022-11-05T00:16:40.544Z,15.80
2022-11-05T00:19:11.622Z,15.90
2022-11-05T00:22:01.060Z,15.90
2022-11-05T00:24:50.499Z,15.60
2022-11-05T00:27:21.369Z,15.70
2022-11-05T00:29:52.330Z,15.90
2022-11-05T00:32:23.235Z,15.90
2022-11-05T00:34:54.134Z,16.00
2022-11-05T00:37:26.874Z,15.80
2022-11-05T00:39:57.812Z,15.60
2022-11-05T00:42:47.304Z,15.80
2022-11-05T00:45:18.350Z,16.00
2022-11-05T00:48:07.937Z,15.80
2022-11-05T00:50:38.818Z,16.00
2022-11-05T00:53:09.967Z,15.70
2022-11-05T00:55:44.748Z,15.80
2022-11-05T00:58:19.396Z,15.80
2022-11-05T01:00:53.742Z,15.90
2022-11-05T01:03:31.129Z,16.10
2022-11-05T01:06:15.961Z,16.20
2022-11-05T01:08:47.422Z,16.30
2022-11-05T01:11:46.074Z,15.90
2022-11-05T01:14:17.063Z,15.90
2022-11-05T01:16:47.931Z,16.10
2022-11-05T01:19:18.803Z,16.10
2022-11-05T01:21:49.680Z,16.20
2022-11-05T01:24:20.592Z,16.20
2022-11-05T01:26:51.469Z,16.10
2022-11-05T01:29:22.417Z,16.30
2022-11-05T01:31:53.303Z,16.10
2022-11-05T01:34:24.217Z,16.00
2022-11-05T01:36:55.066Z,16.00
2022-11-05T01:39:25.987Z,16.20
2022-11-05T01:41:58.782Z,16.10
2022-11-05T01:44:57.584Z,16.10
2022-11-05T01:47:57.835Z,16.30
2022-11-05T01:50:30.648Z,16.30
2022-11-05T01:53:17.277Z,16.20
2022-11-05T01:56:07.937Z,16.20
2022-11-05T01:59:01.231Z,16.30
2022-11-05T02:01:32.855Z,16.10
2022-11-05T02:04:09.444Z,16.10
2022-11-05T02:06:46.638Z,16.20
2022-11-05T02:09:25.473Z,16.20
2022-11-05T02:11:56.492Z,16.20
2022-11-05T02:14:27.356Z,16.10
2022-11-05T02:17:37.327Z,16.00
2022-11-05T02:20:29.202Z,16.00
2022-11-05T02:23:24.104Z,15.70
2022-11-05T02:26:05.233Z,15.60
2022-11-05T02:29:21.293Z,15.60
2022-11-05T02:32:05.400Z,15.70
2022-11-05T02:35:00.975Z,15.80
2022-11-05T02:37:41.354Z,15.90
2022-11-05T02:40:36.671Z,16.00
2022-11-05T02:43:35.245Z,15.80
2022-11-05T02:46:26.902Z,15.90
2022-11-05T02:48:57.761Z,15.90
2022-11-05T02:51:59.443Z,15.80
2022-11-05T02:55:17.401Z,15.70
2022-11-05T02:57:48.414Z,15.70
2022-11-05T03:00:53.536Z,15.70
2022-11-05T03:04:00.801Z,15.60
2022-11-05T03:07:04.055Z,15.50
2022-11-05T03:09:47.567Z,15.60
2022-11-05T03:12:27.336Z,15.70
2022-11-05T03:15:15.600Z,15.70
2022-11-05T03:18:10.728Z,15.80
2022-11-05T03:21:12.369Z,15.80
2022-11-05T03:24:06.069Z,15.80
2022-11-05T03:27:00.867Z,15.80
2022-11-05T03:29:42.766Z,15.80
2022-11-05T03:32:16.245Z,15.90
2022-11-05T03:34:52.675Z,16.00
2022-11-05T03:37:25.327Z,16.20
2022-11-05T03:40:00.381Z,15.80
2022-11-05T03:42:36.474Z,15.60
2022-11-05T03:45:20.183Z,15.60
2022-11-05T03:47:57.531Z,15.80
2022-11-05T03:50:53.907Z,15.80
2022-11-05T03:53:33.615Z,15.70
2022-11-05T03:56:12.302Z,15.60
2022-11-05T03:58:45.266Z,15.60
2022-11-05T04:01:16.600Z,15.70
2022-11-05T04:03:47.564Z,15.80
2022-11-05T04:06:37.271Z,15.70
2022-11-05T04:09:28.165Z,15.60
2022-11-05T04:12:17.510Z,15.60
2022-11-05T04:14:48.397Z,15.60
2022-11-05T04:17:19.280Z,15.80
2022-11-05T04:20:08.685Z,15.70
2022-11-05T04:22:58.198Z,15.80
2022-11-05T04:25:29.077Z,15.90
2022-11-05T04:28:00.656Z,15.90
2022-11-05T04:30:31.551Z,16.00
2022-11-05T04:33:12.508Z,16.20
2022-11-05T04:35:47.131Z,15.90
2022-11-05T04:38:19.806Z,15.80
2022-11-05T04:40:50.774Z,15.90
2022-11-05T04:43:22.002Z,15.90
2022-11-05T04:45:53.203Z,15.80
2022-11-05T04:48:24.067Z,16.00
2022-11-05T04:50:54.935Z,16.10
2022-11-05T04:53:25.801Z,16.00
2022-11-05T04:56:13.176Z,16.10
2022-11-05T04:58:45.142Z,15.70
2022-11-05T05:01:19.816Z,15.80
2022-11-05T05:03:52.348Z,16.10
2022-11-05T05:06:23.970Z,15.80
2022-11-05T05:08:54.885Z,16.10
2022-11-05T05:11:25.786Z,16.20
2022-11-05T05:13:56.713Z,15.80
2022-11-05T05:16:28.207Z,16.00
2022-11-05T05:18:59.146Z,16.00
2022-11-05T05:21:39.606Z,15.90
2022-11-05T05:24:18.729Z,15.90
2022-11-05T05:26:51.420Z,16.00
2022-11-05T05:29:22.298Z,15.70
2022-11-05T05:31:53.149Z,15.70
2022-11-05T05:34:24.031Z,15.90
2022-11-05T05:36:55.140Z,16.10
2022-11-05T05:39:27.135Z,16.10
2022-11-05T05:41:58.020Z,15.70
2022-11-05T05:44:28.910Z,15.90
2022-11-05T05:46:59.767Z,15.70
2022-11-05T05:49:30.680Z,15.80
2022-11-05T05:52:01.948Z,15.80
2022-11-05T05:54:35.989Z,15.90
2022-11-05T05:57:09.275Z,15.60
2022-11-05T05:59:40.164Z,15.50
2022-11-05T06:02:12.596Z,15.50
2022-11-05T06:04:43.610Z,15.60
2022-11-05T06:07:14.516Z,15.30
2022-11-05T06:09:45.460Z,15.70
2022-11-05T06:12:16.317Z,15.90
2022-11-05T06:14:47.369Z,15.60
2022-11-05T06:17:18.217Z,15.70
2022-11-05T06:19:49.132Z,15.40
2022-11-05T06:22:19.988Z,15.60
2022-11-05T06:24:50.993Z,15.00
2022-11-05T06:27:21.891Z,15.00
2022-11-05T06:29:52.753Z,15.10
2022-11-05T06:32:23.726Z,15.20
2022-11-05T06:34:54.587Z,15.20
2022-11-05T06:37:25.737Z,15.00
2022-11-05T06:39:57.241Z,15.10
2022-11-05T06:42:28.117Z,15.00
2022-11-05T06:44:59.012Z,15.30
2022-11-05T06:47:29.941Z,15.20
2022-11-05T06:50:00.832Z,15.40
2022-11-05T06:52:33.934Z,15.30
2022-11-05T06:55:07.192Z,15.60
2022-11-05T06:57:38.817Z,15.60
2022-11-05T07:00:10.782Z,15.70
2022-11-05T07:02:41.625Z,15.70
2022-11-05T07:05:13.910Z,15.60
2022-11-05T07:07:45.848Z,15.30
2022-11-05T07:10:19.175Z,15.20
2022-11-05T07:12:50.032Z,15.40
2022-11-05T07:15:20.984Z,15.60
2022-11-05T07:17:58.765Z,15.80
2022-11-05T07:20:34.304Z,15.20
2022-11-05T07:23:08.868Z,15.10
2022-11-05T07:25:41.482Z,15.50
2022-11-05T07:28:14.650Z,15.60
2022-11-05T07:30:46.474Z,15.80
2022-11-05T07:33:17.716Z,14.80
2022-11-05T07:35:48.710Z,15.30
2022-11-05T07:38:23.751Z,15.50
2022-11-05T07:40:54.795Z,15.70
2022-11-05T07:43:25.641Z,15.90
2022-11-05T07:45:56.646Z,15.60
2022-11-05T07:48:27.525Z,15.40
2022-11-05T07:50:58.429Z,15.50
2022-11-05T07:53:29.295Z,15.40
2022-11-05T07:56:00.188Z,15.60
2022-11-05T07:58:31.104Z,15.80
2022-11-05T08:01:02.190Z,15.40
2022-11-05T08:03:33.942Z,15.50
2022-11-05T08:06:05.296Z,15.40
2022-11-05T08:08:36.150Z,15.50
2022-11-05T08:11:10.063Z,15.60
2022-11-05T08:13:42.818Z,14.70
2022-11-05T08:16:13.730Z,14.90
2022-11-05T08:18:44.899Z,14.60
2022-11-05T08:21:15.792Z,14.60
2022-11-05T08:23:46.679Z,14.70
2022-11-05T08:26:17.539Z,14.00
2022-11-05T08:28:48.433Z,13.80
2022-11-05T08:31:19.267Z,14.30
2022-11-05T08:33:50.579Z,13.80
2022-11-05T08:36:21.447Z,13.80
2022-11-05T08:38:52.303Z,13.60
2022-11-05T08:41:23.194Z,13.50
2022-11-05T08:43:57.173Z,13.90
2022-11-05T08:46:28.071Z,14.20
2022-11-05T08:48:58.941Z,14.10
2022-11-05T08:51:29.807Z,14.30
2022-11-05T08:54:00.757Z,13.90
2022-11-05T08:56:31.793Z,13.90
2022-11-05T08:59:02.728Z,14.00
2022-11-05T09:01:34.747Z,13.90
2022-11-05T09:04:05.874Z,14.30
2022-11-05T09:06:37.264Z,14.40
2022-11-05T09:09:08.156Z,14.10
2022-11-05T09:12:10.105Z,14.20
2022-11-05T09:14:31.542Z,14.70
2022-11-05T09:17:02.445Z,14.70
2022-11-05T09:19:36.707Z,13.90
2022-11-05T09:22:12.798Z,14.20
2022-11-05T09:24:44.080Z,14.00
2022-11-05T09:27:15.247Z,14.30
2022-11-05T09:29:46.129Z,13.60
2022-11-05T09:32:19.240Z,13.90
2022-11-05T09:34:50.692Z,14.00
2022-11-05T09:37:22.016Z,14.00
2022-11-05T09:39:53.144Z,14.10
2022-11-05T09:42:41.523Z,14.50
2022-11-05T09:45:25.093Z,14.00
2022-11-05T09:48:05.723Z,14.50
2022-11-05T09:50:42.773Z,14.40
2022-11-05T09:53:16.925Z,14.90
2022-11-05T09:55:55.751Z,14.40
2022-11-05T09:58:43.738Z,14.80
2022-11-05T10:01:42.730Z,14.60
2022-11-05T10:04:22.840Z,14.70
2022-11-05T10:06:59.601Z,14.70
2022-11-05T10:09:47.805Z,15.00
2022-11-05T10:12:30.708Z,14.70
2022-11-05T10:15:16.021Z,14.90
2022-11-05T10:17:53.268Z,14.70
2022-11-05T10:20:39.296Z,15.30
2022-11-05T10:23:17.258Z,15.30
2022-11-05T10:26:12.813Z,14.80
2022-11-05T10:28:43.967Z,14.80
2022-11-05T10:31:23.367Z,14.70
2022-11-05T10:34:01.017Z,14.70
2022-11-05T10:36:36.373Z,14.80
2022-11-05T10:39:17.498Z,14.10
2022-11-05T10:42:32.980Z,14.10
2022-11-05T10:45:44.748Z,14.40
2022-11-05T10:48:48.154Z,14.60
2022-11-05T10:51:19.583Z,14.40
2022-11-05T10:54:01.351Z,14.80
2022-11-05T10:56:39.017Z,14.70
2022-11-05T10:59:26.423Z,15.00
2022-11-05T11:02:15.740Z,15.20
2022-11-05T11:04:53.255Z,15.70
2022-11-05T11:07:25.992Z,15.80
2022-11-05T11:09:56.921Z,15.30
2022-11-05T11:12:40.815Z,15.40
2022-11-05T11:15:29.084Z,15.00
2022-11-05T11:18:34.664Z,15.00
2022-11-05T11:21:23.068Z,15.20
2022-11-05T11:24:03.663Z,15.40
2022-11-05T11:26:38.676Z,15.20
2022-11-05T11:29:28.446Z,15.20
2022-11-05T11:32:00.036Z,15.40
2022-11-05T11:34:36.092Z,15.00
2022-11-05T11:37:29.055Z,15.10
2022-11-05T11:40:15.810Z,15.80
2022-11-05T11:42:54.772Z,15.50
2022-11-05T11:45:37.672Z,15.80
2022-11-05T11:48:45.803Z,15.70
2022-11-05T11:51:36.822Z,15.50
2022-11-05T11:54:21.168Z,15.50
2022-11-05T11:56:52.015Z,15.50
2022-11-05T11:59:54.018Z,15.80
2022-11-05T12:02:33.435Z,16.20
2022-11-05T12:05:13.829Z,16.00
2022-11-05T12:07:53.100Z,15.50
2022-11-05T12:11:04.384Z,15.80
2022-11-05T12:14:30.041Z,15.30
2022-11-05T12:17:25.664Z,16.10
2022-11-05T12:20:17.173Z,16.30
2022-11-05T12:23:10.880Z,15.80
2022-11-05T12:26:26.029Z,16.40
2022-11-05T12:29:23.906Z,16.40
2022-11-05T12:32:17.874Z,16.30
2022-11-05T12:35:44.166Z,16.40
2022-11-05T12:38:41.867Z,16.60
2022-11-05T12:42:01.637Z,17.00
2022-11-05T12:45:12.416Z,17.20
2022-11-05T12:48:28.274Z,17.10
2022-11-05T12:51:28.700Z,16.60
2022-11-05T12:54:24.925Z,17.20
2022-11-05T12:57:02.057Z,16.60
2022-11-05T12:59:35.917Z,16.70
2022-11-05T13:02:30.807Z,16.80
2022-11-05T13:05:13.962Z,16.70
2022-11-05T13:07:54.751Z,16.50
2022-11-05T13:10:32.284Z,16.30
2022-11-05T13:13:31.445Z,16.00
2022-11-05T13:16:36.474Z,16.20
2022-11-05T13:19:22.827Z,16.30
2022-11-05T13:22:30.260Z,16.70
2022-11-05T13:25:24.161Z,16.70
2022-11-05T13:28:19.317Z,16.60
2022-11-05T13:30:55.348Z,16.20
2022-11-05T13:33:36.051Z,16.80
2022-11-05T13:37:05.604Z,16.30
2022-11-05T13:39:59.501Z,16.30
2022-11-05T13:42:48.696Z,16.90
2022-11-05T13:45:42.515Z,16.90
2022-11-05T13:48:44.356Z,17.10
2022-11-05T13:51:39.637Z,17.00
2022-11-05T13:54:48.645Z,16.30
2022-11-05T13:58:11.326Z,16.20
2022-11-05T14:01:09.307Z,16.40
2022-11-05T14:03:48.536Z,16.30
2022-11-05T14:06:35.835Z,16.60
2022-11-05T14:09:18.768Z,16.30
2022-11-05T14:11:56.689Z,16.40
2022-11-05T14:14:31.017Z,16.20
2022-11-05T14:17:07.888Z,16.40
2022-11-05T14:20:24.247Z,16.80
2022-11-05T14:23:17.976Z,16.90
2022-11-05T14:25:55.150Z,16.90
2022-11-05T14:28:35.063Z,16.80
2022-11-05T14:31:47.265Z,16.80
2022-11-05T14:34:16.550Z,17.10
2022-11-05T14:37:12.723Z,16.80
2022-11-05T14:39:43.947Z,16.60
2022-11-05T14:42:23.640Z,16.80
2022-11-05T14:45:29.310Z,16.50
2022-11-05T14:48:07.457Z,16.00
2022-11-05T14:50:41.786Z,15.80
2022-11-05T14:53:38.378Z,16.30
2022-11-05T14:56:15.319Z,16.40
2022-11-05T14:58:46.901Z,16.50
2022-11-05T15:01:42.457Z,16.20
2022-11-05T15:04:40.561Z,16.40
2022-11-05T15:07:12.796Z,16.80
2022-11-05T15:10:12.594Z,16.60
2022-11-05T15:13:01.952Z,16.70
2022-11-05T15:15:43.858Z,16.60
2022-11-05T15:18:30.009Z,16.40
2022-11-05T15:21:06.084Z,16.60
2022-11-05T15:23:47.699Z,16.60
2022-11-05T15:27:07.797Z,16.30
2022-11-05T15:29:39.012Z,16.20
2022-11-05T15:32:37.427Z,16.20
2022-11-05T15:35:24.725Z,16.10
2022-11-05T15:38:02.082Z,16.50
2022-11-05T15:40:33.984Z,17.00
2022-11-05T15:43:17.637Z,16.90
2022-11-05T15:46:21.422Z,17.00
2022-11-05T15:48:59.318Z,17.00
2022-11-05T15:51:30.560Z,17.00
2022-11-05T15:56:58.932Z,16.60
2022-11-05T15:59:30.982Z,16.40
2022-11-05T16:02:28.827Z,16.50
2022-11-05T16:05:04.349Z,16.70
2022-11-05T16:07:35.389Z,16.60
2022-11-05T16:10:12.497Z,16.50
2022-11-05T16:12:47.305Z,16.10
2022-11-05T16:15:25.993Z,16.10
2022-11-05T16:17:59.790Z,16.20
2022-11-05T16:20:33.462Z,15.70
2022-11-05T16:23:31.054Z,16.40
2022-11-05T16:26:03.760Z,16.10
2022-11-05T16:28:35.003Z,16.20
2022-11-05T16:31:06.038Z,15.80
2022-11-05T16:33:46.148Z,16.10
2022-11-05T16:36:17.706Z,16.20
2022-11-05T16:38:48.936Z,16.20
2022-11-05T16:41:24.018Z,16.10
2022-11-05T16:43:58.029Z,16.10
2022-11-05T16:46:30.268Z,16.10
2022-11-05T16:49:01.147Z,16.30
2022-11-05T16:51:32.227Z,16.00
2022-11-05T16:54:06.187Z,16.20
2022-11-05T16:56:37.152Z,16.30
2022-11-05T16:59:12.632Z,16.30
2022-11-05T17:01:44.370Z,15.90
2022-11-05T17:04:15.395Z,15.80
2022-11-05T17:06:48.099Z,15.60
2022-11-05T17:09:19.199Z,15.40
2022-11-05T17:11:50.033Z,15.30
2022-11-05T17:14:23.318Z,15.30
2022-11-05T17:16:54.820Z,15.00
2022-11-05T17:19:25.732Z,15.00
2022-11-05T17:21:56.781Z,14.80
2022-11-05T17:24:27.671Z,15.20
2022-11-05T17:26:58.546Z,15.10
2022-11-05T17:29:29.466Z,14.90
2022-11-05T17:32:00.310Z,14.60
2022-11-05T17:34:31.195Z,14.50
2022-11-05T17:37:02.057Z,14.30
2022-11-05T17:39:33.061Z,14.20
2022-11-05T17:42:06.841Z,14.10
2022-11-05T17:44:37.816Z,14.10
2022-11-05T17:47:08.899Z,14.00
2022-11-05T17:49:42.536Z,13.90
2022-11-05T17:52:18.551Z,13.80
2022-11-05T17:54:49.709Z,13.60
2022-11-05T17:57:20.557Z,13.60
2022-11-05T17:59:51.446Z,13.60
2022-11-05T18:02:22.473Z,13.60
2022-11-05T18:04:53.408Z,13.50
2022-11-05T18:07:24.282Z,13.30
2022-11-05T18:09:55.281Z,13.20
2022-11-05T18:12:26.188Z,13.30
2022-11-05T18:14:57.160Z,13.20
2022-11-05T18:17:29.663Z,13.10
2022-11-05T18:20:00.730Z,13.10
2022-11-05T18:22:31.674Z,13.10
2022-11-05T18:25:04.160Z,12.70
2022-11-05T18:27:38.365Z,12.80
2022-11-05T18:30:11.132Z,12.70
2022-11-05T18:32:44.117Z,12.60
2022-11-05T18:35:15.181Z,12.80
2022-11-05T18:37:46.091Z,12.80
2022-11-05T18:40:17.048Z,12.70
2022-11-05T18:42:53.451Z,12.80
2022-11-05T18:45:28.545Z,12.50
2022-11-05T18:48:02.514Z,12.60
2022-11-05T18:50:33.738Z,12.60
2022-11-05T18:53:04.644Z,12.50
2022-11-05T18:55:35.572Z,12.60
2022-11-05T18:58:06.498Z,12.40
2022-11-05T19:00:39.927Z,12.30
2022-11-05T19:03:10.887Z,12.30
2022-11-05T19:05:41.883Z,12.20
2022-11-05T19:08:13.133Z,12.00
2022-11-05T19:10:49.635Z,12.10
2022-11-05T19:13:26.904Z,12.10
2022-11-05T19:16:00.810Z,12.10
2022-11-05T19:18:31.696Z,12.00
2022-11-05T19:21:10.914Z,11.80
2022-11-05T19:23:44.171Z,12.00
2022-11-05T19:26:28.195Z,11.80
2022-11-05T19:29:04.354Z,11.70
2022-11-05T19:31:35.574Z,11.70
2022-11-05T19:34:06.514Z,11.80
2022-11-05T19:36:37.413Z,11.70
2022-11-05T19:39:12.114Z,11.70
2022-11-05T19:41:44.852Z,11.80
2022-11-05T19:44:15.811Z,11.90
2022-11-05T19:46:46.694Z,11.80
2022-11-05T19:49:17.606Z,11.80
2022-11-05T19:51:48.521Z,11.80
2022-11-05T19:54:19.559Z,12.20
2022-11-05T19:56:51.937Z,11.80
2022-11-05T19:59:22.947Z,11.70
2022-11-05T20:01:53.952Z,11.80
2022-11-05T20:04:25.057Z,11.60
2022-11-05T20:06:56.019Z,11.80
2022-11-05T20:09:26.918Z,11.80
2022-11-05T20:11:57.901Z,11.80
2022-11-05T20:14:29.724Z,11.90
2022-11-05T20:17:03.784Z,11.90
2022-11-05T20:19:35.437Z,11.80
2022-11-05T20:22:06.322Z,11.80
2022-11-05T20:24:38.146Z,11.90
2022-11-05T20:27:09.178Z,11.80
2022-11-05T20:29:40.051Z,12.00
2022-11-05T20:32:14.959Z,11.90
2022-11-05T20:34:45.797Z,12.10
2022-11-05T20:37:16.739Z,12.20
2022-11-05T20:39:47.715Z,12.20
2022-11-05T20:42:18.783Z,12.10
2022-11-05T20:44:49.636Z,12.10
2022-11-05T20:47:20.515Z,12.20
2022-11-05T20:49:51.925Z,12.20
2022-11-05T20:52:22.836Z,12.20
2022-11-05T20:54:54.004Z,12.40
2022-11-05T20:57:24.931Z,12.60
2022-11-05T20:59:55.881Z,12.80
2022-11-05T21:02:26.870Z,12.70
2022-11-05T21:04:57.799Z,12.50
2022-11-05T21:07:31.689Z,12.50
2022-11-05T21:10:02.607Z,12.40
2022-11-05T21:12:33.810Z,12.40
2022-11-05T21:15:05.916Z,12.30
2022-11-05T21:17:37.588Z,11.90
2022-11-05T21:20:11.933Z,11.80
2022-11-05T21:22:45.418Z,11.80
2022-11-05T21:25:16.993Z,11.60
2022-11-05T21:27:47.875Z,11.40
2022-11-05T21:30:18.876Z,11.60
2022-11-05T21:32:49.763Z,11.60
2022-11-05T21:35:20.613Z,11.50
2022-11-05T21:37:51.536Z,11.80
2022-11-05T21:40:22.464Z,11.80
2022-11-05T21:42:53.422Z,11.60
2022-11-05T21:45:24.288Z,11.50
2022-11-05T21:47:55.504Z,11.50
2022-11-05T21:50:45.024Z,11.40
2022-11-05T21:53:35.915Z,11.30
2022-11-05T21:56:39.843Z,11.20
2022-11-05T21:59:34.326Z,11.40
2022-11-05T22:02:07.121Z,11.40
2022-11-05T22:04:47.977Z,11.10
2022-11-05T22:07:33.471Z,11.20
2022-11-05T22:10:13.194Z,11.20
2022-11-05T22:12:46.855Z,11.20
2022-11-05T22:15:17.920Z,11.30
2022-11-05T22:17:51.051Z,11.30
2022-11-05T22:20:21.960Z,11.40
2022-11-05T22:22:53.877Z,11.50
2022-11-05T22:25:24.852Z,11.50
2022-11-05T22:27:55.766Z,11.50
2022-11-05T22:30:27.204Z,11.50
2022-11-05T22:32:58.084Z,11.60
2022-11-05T22:35:29.404Z,11.80
2022-11-05T22:38:00.271Z,11.80
2022-11-05T22:40:31.133Z,12.00
2022-11-05T22:43:02.019Z,12.00
2022-11-05T22:45:36.138Z,12.00
2022-11-05T22:48:08.058Z,12.30
2022-11-05T22:50:39.360Z,12.20
2022-11-05T22:53:10.254Z,12.20
2022-11-05T22:55:41.210Z,12.40
2022-11-05T22:58:12.233Z,12.20
2022-11-05T23:00:43.368Z,12.20
2022-11-05T23:03:14.332Z,12.30
2022-11-05T23:05:45.251Z,12.20
2022-11-05T23:08:34.628Z,12.50
2022-11-05T23:11:35.431Z,12.30
2022-11-05T23:14:10.248Z,12.60
2022-11-05T23:17:00.318Z,12.50
2022-11-05T23:19:50.118Z,12.30
2022-11-05T23:22:50.515Z,12.20
2022-11-05T23:25:23.163Z,12.30
2022-11-05T23:27:54.920Z,12.40
2022-11-05T23:30:27.287Z,12.10
2022-11-05T23:32:58.352Z,12.20
2022-11-05T23:35:47.656Z,11.90
2022-11-05T23:38:33.556Z,12.10
2022-11-05T23:41:24.754Z,12.00
2022-11-05T23:44:13.867Z,12.10
2022-11-05T23:47:10.848Z,12.20
2022-11-05T23:49:41.676Z,12.10
2022-11-05T23:52:12.544Z,12.10
2022-11-05T23:54:43.506Z,12.20
2022-11-05T23:57:14.525Z,12.30
2022-11-05T23:59:45.388Z,12.60
